createdAt,value
2018-12-16T00:02:07.469Z,26.70
2018-12-16T00:04:34.565Z,24.47
2018-12-16T00:07:01.650Z,25.93
2018-12-16T00:09:28.764Z,24.30
2018-12-16T00:11:55.851Z,25.63
2018-12-16T00:14:22.960Z,25.00
2018-12-16T00:16:50.059Z,24.10
2018-12-16T00:19:17.164Z,24.60
2018-12-16T00:21:44.255Z,23.90
2018-12-16T00:24:11.340Z,25.50
2018-12-16T00:26:50.181Z,25.07
2018-12-16T00:29:17.292Z,25.00
2018-12-16T00:31:44.388Z,23.30
2018-12-16T00:34:11.489Z,24.30
2018-12-16T00:36:38.551Z,25.10
2018-12-16T00:39:05.873Z,25.77
2018-12-16T00:41:32.977Z,24.20
2018-12-16T00:44:00.062Z,28.13
2018-12-16T00:46:27.133Z,27.00
2018-12-16T00:48:54.191Z,24.70
2018-12-16T00:51:21.300Z,27.07
2018-12-16T00:53:48.367Z,23.03
2018-12-16T00:56:15.459Z,25.13
2018-12-16T00:58:42.552Z,24.13
2018-12-16T01:01:09.645Z,23.73
2018-12-16T01:03:36.736Z,25.63
2018-12-16T01:06:03.796Z,25.67
2018-12-16T01:08:30.893Z,24.37
2018-12-16T01:10:57.939Z,23.17
2018-12-16T01:13:25.041Z,24.30
2018-12-16T01:15:52.117Z,24.20
2018-12-16T01:18:19.185Z,26.13
2018-12-16T01:20:46.287Z,24.43
2018-12-16T01:23:13.384Z,24.60
2018-12-16T01:25:40.489Z,25.70
2018-12-16T01:28:07.600Z,22.50
2018-12-16T01:30:34.712Z,22.97
2018-12-16T01:33:01.832Z,23.97
2018-12-16T01:35:28.916Z,23.53
2018-12-16T01:37:56.020Z,21.27
2018-12-16T01:40:23.134Z,23.00
2018-12-16T01:42:50.217Z,23.57
2018-12-16T01:45:17.277Z,22.03
2018-12-16T01:47:44.335Z,23.03
2018-12-16T01:50:11.408Z,22.80
2018-12-16T01:52:38.471Z,21.87
2018-12-16T01:55:05.561Z,21.00
2018-12-16T01:57:32.649Z,22.53
2018-12-16T01:59:59.727Z,23.43
2018-12-16T02:02:26.834Z,20.57
2018-12-16T02:04:53.916Z,21.50
2018-12-16T02:07:21.012Z,21.67
2018-12-16T02:09:48.115Z,20.13
2018-12-16T02:12:15.241Z,23.13
2018-12-16T02:14:42.304Z,20.50
2018-12-16T02:17:09.393Z,19.70
2018-12-16T02:19:36.495Z,20.93
2018-12-16T02:22:03.597Z,20.83
2018-12-16T02:24:30.691Z,21.17
2018-12-16T02:26:57.773Z,19.83
2018-12-16T02:29:24.880Z,21.83
2018-12-16T02:31:51.989Z,19.00
2018-12-16T02:34:19.095Z,19.40
2018-12-16T02:36:46.200Z,21.27
2018-12-16T02:39:13.296Z,19.77
2018-12-16T02:41:40.380Z,20.87
2018-12-16T02:44:07.495Z,19.10
2018-12-16T02:46:34.583Z,18.37
2018-12-16T02:49:01.657Z,18.10
2018-12-16T02:51:28.757Z,18.97
2018-12-16T02:53:55.844Z,18.53
2018-12-16T02:56:22.928Z,17.10
2018-12-16T02:58:50.040Z,18.57
2018-12-16T03:01:17.131Z,18.47
2018-12-16T03:03:44.210Z,19.13
2018-12-16T03:06:11.288Z,17.07
2018-12-16T03:08:38.371Z,20.00
2018-12-16T03:11:05.506Z,18.73
2018-12-16T03:13:32.644Z,17.60
2018-12-16T03:15:59.736Z,16.37
2018-12-16T03:18:26.805Z,16.87
2018-12-16T03:20:53.884Z,19.90
2018-12-16T03:23:20.957Z,15.77
2018-12-16T03:25:48.045Z,19.00
2018-12-16T03:28:15.132Z,17.57
2018-12-16T03:30:42.226Z,15.93
2018-12-16T03:33:09.323Z,18.10
2018-12-16T03:35:36.407Z,18.03
2018-12-16T03:38:03.501Z,15.77
2018-12-16T03:40:30.626Z,15.70
2018-12-16T03:42:57.729Z,16.07
2018-12-16T03:45:24.824Z,17.00
2018-12-16T03:47:51.893Z,17.53
2018-12-16T03:50:18.984Z,19.40
2018-12-16T03:52:46.090Z,14.70
2018-12-16T03:55:13.216Z,15.77
2018-12-16T03:57:40.309Z,16.80
2018-12-16T04:00:07.426Z,18.10
2018-12-16T04:02:34.503Z,17.80
2018-12-16T04:05:01.616Z,17.97
2018-12-16T04:07:28.733Z,17.17
2018-12-16T04:09:55.831Z,15.33
2018-12-16T04:12:22.892Z,15.83
2018-12-16T04:14:49.984Z,16.70
2018-12-16T04:17:17.069Z,15.77
2018-12-16T04:19:44.156Z,16.00
2018-12-16T04:22:11.301Z,17.60
2018-12-16T04:24:38.340Z,16.83
2018-12-16T04:27:05.441Z,17.63
2018-12-16T04:29:32.534Z,17.83
2018-12-16T04:31:59.629Z,15.70
2018-12-16T04:34:26.736Z,17.40
2018-12-16T04:36:53.827Z,16.93
2018-12-16T04:39:20.897Z,15.43
2018-12-16T04:41:48.013Z,17.00
2018-12-16T04:44:15.097Z,17.83
2018-12-16T04:46:42.176Z,14.50
2018-12-16T04:49:09.268Z,18.33
2018-12-16T04:51:36.384Z,17.00
2018-12-16T04:54:03.493Z,15.10
2018-12-16T04:57:33.388Z,16.80
2018-12-16T05:00:00.479Z,17.20
2018-12-16T05:02:27.560Z,16.17
2018-12-16T05:04:54.652Z,17.90
2018-12-16T05:07:21.716Z,16.13
2018-12-16T05:09:48.820Z,16.27
2018-12-16T05:12:15.925Z,17.87
2018-12-16T05:14:43.042Z,17.27
2018-12-16T05:17:10.132Z,18.53
2018-12-16T05:19:37.217Z,16.33
2018-12-16T05:22:04.312Z,17.53
2018-12-16T05:24:31.393Z,17.43
2018-12-16T05:26:58.476Z,17.37
2018-12-16T05:29:25.539Z,17.93
2018-12-16T05:31:52.613Z,18.10
2018-12-16T05:34:19.700Z,19.40
2018-12-16T05:36:46.804Z,17.33
2018-12-16T05:39:13.877Z,18.67
2018-12-16T05:41:40.976Z,15.90
2018-12-16T05:44:08.047Z,20.63
2018-12-16T05:46:35.152Z,17.70
2018-12-16T05:49:02.223Z,17.63
2018-12-16T05:51:29.320Z,17.43
2018-12-16T05:53:56.396Z,16.60
2018-12-16T05:56:23.491Z,18.33
2018-12-16T05:58:50.564Z,18.23
2018-12-16T06:01:17.640Z,15.60
2018-12-16T06:03:44.735Z,17.40
2018-12-16T06:06:11.820Z,18.67
2018-12-16T06:08:38.904Z,16.57
2018-12-16T06:11:05.997Z,17.50
2018-12-16T06:13:33.088Z,18.80
2018-12-16T06:16:00.205Z,18.23
2018-12-16T06:18:27.303Z,17.37
2018-12-16T06:20:54.423Z,19.70
2018-12-16T06:23:21.510Z,17.27
2018-12-16T06:25:48.616Z,19.03
2018-12-16T06:28:15.688Z,17.50
2018-12-16T06:30:42.824Z,19.83
2018-12-16T06:33:09.884Z,18.30
2018-12-16T06:35:36.981Z,18.80
2018-12-16T06:38:04.092Z,16.77
2018-12-16T06:40:31.165Z,16.97
2018-12-16T06:42:58.284Z,18.37
2018-12-16T06:45:25.377Z,17.40
2018-12-16T06:47:52.488Z,18.53
2018-12-16T06:50:19.567Z,17.87
2018-12-16T06:52:46.643Z,18.50
2018-12-16T06:55:13.732Z,17.20
2018-12-16T06:57:40.818Z,18.20
2018-12-16T07:00:07.940Z,18.50
2018-12-16T07:02:35.073Z,18.43
2018-12-16T07:05:02.170Z,18.67
2018-12-16T07:07:29.269Z,17.20
2018-12-16T07:09:56.365Z,16.37
2018-12-16T07:12:23.496Z,16.57
2018-12-16T07:14:50.572Z,17.93
2018-12-16T07:17:17.668Z,19.50
2018-12-16T07:19:44.812Z,16.97
2018-12-16T07:22:11.884Z,17.50
2018-12-16T07:24:39.026Z,19.03
2018-12-16T07:27:06.139Z,19.60
2018-12-16T07:29:33.273Z,16.57
2018-12-16T07:32:00.383Z,15.80
2018-12-16T07:34:27.469Z,16.17
2018-12-16T07:36:54.584Z,18.93
2018-12-16T07:39:21.647Z,16.77
2018-12-16T07:41:48.758Z,18.73
2018-12-16T07:44:15.831Z,17.20
2018-12-16T07:46:42.967Z,15.47
2018-12-16T07:49:10.061Z,16.57
2018-12-16T07:51:37.156Z,17.37
2018-12-16T07:54:04.265Z,17.33
2018-12-16T07:56:31.386Z,19.83
2018-12-16T07:58:58.479Z,16.13
2018-12-16T08:01:25.573Z,16.47
2018-12-16T08:03:52.683Z,17.80
2018-12-16T08:06:19.771Z,17.87
2018-12-16T08:08:46.876Z,17.63
2018-12-16T08:11:13.952Z,16.60
2018-12-16T08:13:41.049Z,16.40
2018-12-16T08:16:08.140Z,16.67
2018-12-16T08:18:35.257Z,16.33
2018-12-16T08:21:02.332Z,19.23
2018-12-16T08:23:29.403Z,16.00
2018-12-16T08:25:56.592Z,16.67
2018-12-16T08:28:23.672Z,13.77
2018-12-16T08:30:50.745Z,16.43
2018-12-16T08:33:17.871Z,16.67
2018-12-16T08:35:44.968Z,15.50
2018-12-16T08:38:12.060Z,17.37
2018-12-16T08:40:39.169Z,15.63
2018-12-16T08:43:06.280Z,13.83
2018-12-16T08:45:33.395Z,16.33
2018-12-16T08:48:00.484Z,16.37
2018-12-16T08:50:27.564Z,16.27
2018-12-16T08:52:54.675Z,17.03
2018-12-16T08:55:21.779Z,16.07
2018-12-16T08:57:48.864Z,14.27
2018-12-16T09:00:15.964Z,16.53
2018-12-16T09:02:43.056Z,14.73
2018-12-16T09:05:10.120Z,16.00
2018-12-16T09:07:37.679Z,15.00
2018-12-16T09:10:05.412Z,15.60
2018-12-16T09:12:32.576Z,15.23
2018-12-16T09:14:59.668Z,15.27
2018-12-16T09:17:26.800Z,16.27
2018-12-16T09:19:53.900Z,15.43
2018-12-16T09:22:21.007Z,15.60
2018-12-16T09:24:48.177Z,16.07
2018-12-16T09:27:15.288Z,16.47
2018-12-16T09:29:42.368Z,15.80
2018-12-16T09:32:09.474Z,16.50
2018-12-16T09:34:36.571Z,15.93
2018-12-16T09:37:03.672Z,15.10
2018-12-16T09:40:55.415Z,15.53
2018-12-16T09:43:22.515Z,16.87
2018-12-16T09:45:49.668Z,14.80
2018-12-16T09:48:16.700Z,13.40
2018-12-16T09:50:43.799Z,15.07
2018-12-16T09:53:10.889Z,14.37
2018-12-16T09:55:37.963Z,13.83
2018-12-16T09:58:05.049Z,14.07
2018-12-16T10:00:32.148Z,14.77
2018-12-16T10:02:59.245Z,13.07
2018-12-16T10:05:26.339Z,13.90
2018-12-16T10:07:53.488Z,14.07
2018-12-16T10:10:20.600Z,13.77
2018-12-16T10:12:47.671Z,12.40
2018-12-16T10:15:14.776Z,15.20
2018-12-16T10:17:41.851Z,14.27
2018-12-16T10:20:10.180Z,11.93
2018-12-16T10:22:37.268Z,13.17
2018-12-16T10:25:04.425Z,13.53
2018-12-16T10:27:31.516Z,13.77
2018-12-16T10:29:58.612Z,15.63
2018-12-16T10:32:25.691Z,13.27
2018-12-16T10:34:52.792Z,13.97
2018-12-16T10:37:19.868Z,15.10
2018-12-16T10:39:46.955Z,13.90
2018-12-16T10:42:14.048Z,13.47
2018-12-16T10:44:41.137Z,11.00
2018-12-16T10:47:08.201Z,13.90
2018-12-16T10:49:35.304Z,12.33
2018-12-16T10:52:02.401Z,13.33
2018-12-16T10:54:29.500Z,13.30
2018-12-16T10:56:56.560Z,12.40
2018-12-16T10:59:23.667Z,13.17
2018-12-16T11:01:50.780Z,12.10
2018-12-16T11:04:17.882Z,13.17
2018-12-16T11:06:44.973Z,12.10
2018-12-16T11:09:12.064Z,13.03
2018-12-16T11:11:39.219Z,13.53
2018-12-16T11:14:06.265Z,12.90
2018-12-16T11:16:33.336Z,12.50
2018-12-16T11:19:00.456Z,12.93
2018-12-16T11:21:27.548Z,12.73
2018-12-16T11:23:54.635Z,12.10
2018-12-16T11:26:21.736Z,11.63
2018-12-16T11:28:48.856Z,13.40
2018-12-16T11:31:15.964Z,11.43
2018-12-16T11:33:43.061Z,12.70
2018-12-16T11:36:10.152Z,12.47
2018-12-16T11:38:37.275Z,13.07
2018-12-16T11:41:04.357Z,11.30
2018-12-16T11:43:31.449Z,12.50
2018-12-16T11:45:58.533Z,12.87
2018-12-16T11:48:25.603Z,11.90
2018-12-16T11:50:52.716Z,11.47
2018-12-16T11:53:19.808Z,11.67
2018-12-16T11:55:46.919Z,11.90
2018-12-16T11:58:14.000Z,14.13
2018-12-16T12:00:41.084Z,12.00
2018-12-16T12:03:08.168Z,12.13
2018-12-16T12:05:35.271Z,11.27
2018-12-16T12:08:02.362Z,12.07
2018-12-16T12:10:29.426Z,11.10
2018-12-16T12:12:56.521Z,11.90
2018-12-16T12:15:23.609Z,11.07
2018-12-16T12:17:50.746Z,11.83
2018-12-16T12:20:17.860Z,12.13
2018-12-16T12:22:44.945Z,11.00
2018-12-16T12:25:12.056Z,13.07
2018-12-16T12:27:39.132Z,11.87
2018-12-16T12:30:08.293Z,11.90
2018-12-16T12:32:35.349Z,13.23
2018-12-16T12:35:02.489Z,11.07
2018-12-16T12:37:29.629Z,11.53
2018-12-16T12:39:56.732Z,11.40
2018-12-16T12:42:23.791Z,11.50
2018-12-16T12:44:50.867Z,11.20
2018-12-16T12:47:17.969Z,11.90
2018-12-16T12:49:45.370Z,11.70
2018-12-16T12:52:12.188Z,12.70
2018-12-16T12:54:39.297Z,12.33
2018-12-16T12:57:06.373Z,12.17
2018-12-16T12:59:33.452Z,11.97
2018-12-16T13:02:00.540Z,10.57
2018-12-16T13:04:27.628Z,12.40
2018-12-16T13:06:54.807Z,12.73
2018-12-16T13:09:21.940Z,11.13
2018-12-16T13:11:49.024Z,12.07
2018-12-16T13:14:16.092Z,11.87
2018-12-16T13:16:43.305Z,12.17
2018-12-16T13:19:10.389Z,12.40
2018-12-16T13:21:37.491Z,11.50
2018-12-16T13:24:04.585Z,12.80
2018-12-16T13:26:31.731Z,12.47
2018-12-16T13:28:58.808Z,12.53
2018-12-16T13:31:25.880Z,14.07
2018-12-16T13:33:52.992Z,11.10
2018-12-16T13:36:20.076Z,12.53
2018-12-16T13:38:47.140Z,11.30
2018-12-16T13:41:14.199Z,12.37
2018-12-16T13:43:41.298Z,12.27
2018-12-16T13:46:08.391Z,15.93
2018-12-16T13:48:35.596Z,12.47
2018-12-16T13:51:02.707Z,11.97
2018-12-16T13:53:29.796Z,12.43
2018-12-16T13:55:56.925Z,11.53
2018-12-16T13:58:23.978Z,10.73
2018-12-16T14:00:51.103Z,11.40
2018-12-16T14:03:18.192Z,13.83
2018-12-16T14:05:46.845Z,11.93
2018-12-16T14:08:12.433Z,10.87
2018-12-16T14:10:39.536Z,11.47
2018-12-16T14:13:06.612Z,10.70
2018-12-16T14:15:33.707Z,10.90
2018-12-16T14:18:00.786Z,13.03
2018-12-16T14:20:27.897Z,11.30
2018-12-16T14:22:54.996Z,11.20
2018-12-16T14:25:22.080Z,10.27
2018-12-16T14:27:49.168Z,11.53
2018-12-16T14:30:16.256Z,11.83
2018-12-16T14:32:43.416Z,10.43
2018-12-16T14:35:10.481Z,9.97
2018-12-16T14:37:37.609Z,11.60
2018-12-16T14:40:05.835Z,10.87
2018-12-16T14:42:32.968Z,11.10
2018-12-16T14:45:00.063Z,11.37
2018-12-16T14:47:27.160Z,13.10
2018-12-16T14:49:54.243Z,12.53
2018-12-16T14:52:21.343Z,10.20
2018-12-16T14:54:48.449Z,10.13
2018-12-16T14:57:15.529Z,10.87
2018-12-16T14:59:42.639Z,10.90
2018-12-16T15:02:09.736Z,12.03
2018-12-16T15:04:36.828Z,11.50
2018-12-16T15:07:03.928Z,10.83
2018-12-16T15:09:31.023Z,11.00
2018-12-16T15:11:58.124Z,11.93
2018-12-16T15:14:25.216Z,11.07
2018-12-16T15:16:52.320Z,11.10
2018-12-16T15:19:19.404Z,12.77
2018-12-16T15:21:46.513Z,10.70
2018-12-16T15:24:13.597Z,11.97
2018-12-16T15:26:40.702Z,12.10
2018-12-16T15:29:07.791Z,11.17
2018-12-16T15:31:34.896Z,10.23
2018-12-16T15:34:01.988Z,9.73
2018-12-16T15:36:29.076Z,10.50
2018-12-16T15:38:56.172Z,11.43
2018-12-16T15:41:23.275Z,11.13
2018-12-16T15:43:50.446Z,11.23
2018-12-16T15:46:17.550Z,11.43
2018-12-16T15:48:44.655Z,11.23
2018-12-16T15:51:11.759Z,10.37
2018-12-16T15:53:38.904Z,10.37
2018-12-16T15:56:09.330Z,11.53
2018-12-16T15:58:33.096Z,10.93
2018-12-16T16:01:00.179Z,10.00
2018-12-16T16:03:27.286Z,10.77
2018-12-16T16:05:54.401Z,9.90
2018-12-16T16:08:21.499Z,9.87
2018-12-16T16:10:48.602Z,11.87
2018-12-16T16:13:15.704Z,11.30
2018-12-16T16:15:42.791Z,13.23
2018-12-16T16:18:09.897Z,11.53
2018-12-16T16:20:36.996Z,12.83
2018-12-16T16:23:04.072Z,10.57
2018-12-16T16:25:31.216Z,12.37
2018-12-16T16:27:58.276Z,10.27
2018-12-16T16:30:25.365Z,11.43
2018-12-16T16:32:52.462Z,11.37
2018-12-16T16:35:19.580Z,10.03
2018-12-16T16:37:46.678Z,10.47
2018-12-16T16:40:13.796Z,11.60
2018-12-16T16:42:40.908Z,10.17
2018-12-16T16:45:07.999Z,11.93
2018-12-16T16:47:35.097Z,11.50
2018-12-16T16:50:02.216Z,13.27
2018-12-16T16:52:29.326Z,11.83
2018-12-16T16:54:56.400Z,13.40
2018-12-16T16:57:23.484Z,13.10
2018-12-16T16:59:50.544Z,13.33
2018-12-16T17:02:17.652Z,11.10
2018-12-16T17:04:44.773Z,12.60
2018-12-16T17:07:11.864Z,12.03
2018-12-16T17:09:38.944Z,14.87
2018-12-16T17:12:06.039Z,12.07
2018-12-16T17:14:33.140Z,15.27
2018-12-16T17:17:00.216Z,13.93
2018-12-16T17:19:27.341Z,14.73
2018-12-16T17:21:54.459Z,12.83
2018-12-16T17:24:21.565Z,13.43
2018-12-16T17:26:48.645Z,13.93
2018-12-16T17:29:15.742Z,12.57
2018-12-16T17:31:42.854Z,13.80
2018-12-16T17:34:09.952Z,13.50
2018-12-16T17:36:37.048Z,12.03
2018-12-16T17:39:06.851Z,15.07
2018-12-16T17:41:33.955Z,14.33
2018-12-16T17:44:01.060Z,12.10
2018-12-16T17:46:28.140Z,13.20
2018-12-16T17:48:55.223Z,12.27
2018-12-16T17:51:22.289Z,12.17
2018-12-16T17:53:49.376Z,12.63
2018-12-16T17:56:16.483Z,12.43
2018-12-16T17:58:43.617Z,14.73
2018-12-16T18:01:10.706Z,13.53
2018-12-16T18:03:37.892Z,11.37
2018-12-16T18:06:04.991Z,13.30
2018-12-16T18:08:32.103Z,13.17
2018-12-16T18:10:59.184Z,12.47
2018-12-16T18:13:26.296Z,12.63
2018-12-16T18:15:53.376Z,11.77
2018-12-16T18:18:20.489Z,11.80
2018-12-16T18:20:47.592Z,12.17
2018-12-16T18:23:14.697Z,14.27
2018-12-16T18:25:41.799Z,12.33
2018-12-16T18:28:08.875Z,13.87
2018-12-16T18:30:35.971Z,12.77
2018-12-16T18:33:03.113Z,13.13
2018-12-16T18:35:30.205Z,11.40
2018-12-16T18:37:57.320Z,12.53
2018-12-16T18:40:24.427Z,13.13
2018-12-16T18:42:51.517Z,14.70
2018-12-16T18:45:18.637Z,12.77
2018-12-16T18:47:45.737Z,12.37
2018-12-16T18:50:12.832Z,11.67
2018-12-16T18:52:39.952Z,11.93
2018-12-16T18:55:08.244Z,12.00
2018-12-16T18:57:34.156Z,12.77
2018-12-16T19:00:01.268Z,11.33
2018-12-16T19:02:28.347Z,11.63
2018-12-16T19:04:55.460Z,12.80
2018-12-16T19:07:22.529Z,13.47
2018-12-16T19:09:49.616Z,12.33
2018-12-16T19:12:16.712Z,14.40
2018-12-16T19:14:43.843Z,13.50
2018-12-16T19:17:10.931Z,12.43
2018-12-16T19:19:38.008Z,14.03
2018-12-16T19:22:05.079Z,12.23
2018-12-16T19:24:32.136Z,12.63
2018-12-16T19:26:59.233Z,11.87
2018-12-16T19:29:26.324Z,13.13
2018-12-16T19:31:53.427Z,11.43
2018-12-16T19:34:20.529Z,10.97
2018-12-16T19:36:47.623Z,11.37
2018-12-16T19:39:14.717Z,11.53
2018-12-16T19:41:41.816Z,11.27
2018-12-16T19:44:09.718Z,13.87
2018-12-16T19:46:36.033Z,12.27
2018-12-16T19:49:03.117Z,13.30
2018-12-16T19:51:30.216Z,12.60
2018-12-16T19:53:57.340Z,13.83
2018-12-16T19:56:24.424Z,12.13
2018-12-16T19:58:51.554Z,12.37
2018-12-16T20:01:18.658Z,11.67
2018-12-16T20:03:51.581Z,11.73
2018-12-16T20:06:24.464Z,12.17
2018-12-16T20:08:51.568Z,12.97
2018-12-16T20:11:18.716Z,12.40
2018-12-16T20:13:45.813Z,11.47
2018-12-16T20:16:12.902Z,13.47
2018-12-16T20:18:39.977Z,11.57
2018-12-16T20:21:07.047Z,14.07
2018-12-16T20:23:34.150Z,12.70
2018-12-16T20:26:01.288Z,12.80
2018-12-16T20:28:28.384Z,12.67
2018-12-16T20:30:55.503Z,10.43
2018-12-16T20:33:22.625Z,11.23
2018-12-16T20:35:49.716Z,12.53
2018-12-16T20:38:16.820Z,12.17
2018-12-16T20:40:43.928Z,12.30
2018-12-16T20:43:11.028Z,12.97
2018-12-16T20:45:38.115Z,11.20
2018-12-16T20:48:05.284Z,11.37
2018-12-16T20:50:32.364Z,11.83
2018-12-16T20:52:59.455Z,13.73
2018-12-16T20:55:26.572Z,12.13
2018-12-16T20:57:53.652Z,12.70
2018-12-16T21:00:20.740Z,10.97
2018-12-16T21:02:47.836Z,11.97
2018-12-16T21:05:14.928Z,13.77
2018-12-16T21:07:42.029Z,13.30
2018-12-16T21:10:09.120Z,12.53
2018-12-16T21:12:42.023Z,12.57
2018-12-16T21:15:14.871Z,11.83
2018-12-16T21:17:47.777Z,11.70
2018-12-16T21:20:14.884Z,12.47
2018-12-16T21:22:42.004Z,11.00
2018-12-16T21:25:09.104Z,14.17
2018-12-16T21:27:36.208Z,12.67
2018-12-16T21:30:03.515Z,10.53
2018-12-16T21:32:30.616Z,12.87
2018-12-16T21:34:57.720Z,13.10
2018-12-16T21:37:24.818Z,12.20
2018-12-16T21:39:51.919Z,12.93
2018-12-16T21:42:18.999Z,13.10
2018-12-16T21:44:46.120Z,12.30
2018-12-16T21:47:13.216Z,11.83
2018-12-16T21:49:40.316Z,12.43
2018-12-16T21:52:07.408Z,12.77
2018-12-16T21:54:34.492Z,12.20
2018-12-16T21:57:01.572Z,13.00
2018-12-16T21:59:28.701Z,12.97
2018-12-16T22:01:55.800Z,12.77
2018-12-16T22:04:22.932Z,12.73
2018-12-16T22:06:50.024Z,13.57
2018-12-16T22:09:17.095Z,13.50
2018-12-16T22:11:44.192Z,12.23
2018-12-16T22:14:11.299Z,13.83
2018-12-16T22:16:38.387Z,13.90
2018-12-16T22:19:05.484Z,13.20
2018-12-16T22:21:32.610Z,12.47
2018-12-16T22:23:59.705Z,13.77
2018-12-16T22:26:26.801Z,13.03
2018-12-16T22:28:53.909Z,13.77
2018-12-16T22:31:21.012Z,14.20
2018-12-16T22:33:48.104Z,13.23
2018-12-16T22:36:15.200Z,13.23
2018-12-16T22:38:42.316Z,13.23
2018-12-16T22:41:09.416Z,14.60
2018-12-16T22:43:36.508Z,14.13
2018-12-16T22:46:03.593Z,12.50
2018-12-16T22:48:30.689Z,14.27
2018-12-16T22:50:57.783Z,12.90
2018-12-16T22:53:24.868Z,12.03
2018-12-16T22:55:51.952Z,13.63
2018-12-16T22:58:19.047Z,13.50
2018-12-16T23:00:51.892Z,13.00
2018-12-16T23:03:18.986Z,12.40
2018-12-16T23:05:46.068Z,12.80
2018-12-16T23:08:13.216Z,14.70
2018-12-16T23:10:40.352Z,13.63
2018-12-16T23:13:07.445Z,12.93
2018-12-16T23:15:34.564Z,12.47
2018-12-16T23:18:01.652Z,11.93
2018-12-16T23:20:28.772Z,12.97
2018-12-16T23:22:56.069Z,15.20
2018-12-16T23:25:23.197Z,12.20
2018-12-16T23:27:54.131Z,12.67
2018-12-16T23:30:17.603Z,12.50
2018-12-16T23:32:44.688Z,12.43
2018-12-16T23:35:11.808Z,12.97
2018-12-16T23:37:38.920Z,13.87
2018-12-16T23:40:06.027Z,14.80
2018-12-16T23:42:33.115Z,14.73
2018-12-16T23:45:00.226Z,14.03
2018-12-16T23:47:27.319Z,14.77
2018-12-16T23:49:54.401Z,13.33
2018-12-16T23:52:21.515Z,13.07
2018-12-16T23:54:48.584Z,15.20
2018-12-16T23:57:15.690Z,13.77
2018-12-16T23:59:42.780Z,14.60
